createdAt,value
2022-08-04T00:00:05.229Z,1.40
2022-08-04T00:00:18.291Z,1.60
2022-08-04T00:00:31.492Z,1.60
2022-08-04T00:00:46.923Z,1.55
2022-08-04T00:01:09.742Z,1.50
2022-08-04T00:01:38.087Z,1.40
2022-08-04T00:01:54.190Z,1.40
2022-08-04T00:02:08.253Z,1.40
2022-08-04T00:02:56.184Z,1.40
2022-08-04T00:03:28.453Z,1.40
2022-08-04T00:03:55.646Z,1.52
2022-08-04T00:04:19.562Z,1.60
2022-08-04T00:04:36.176Z,1.42
2022-08-04T00:05:05.550Z,1.40
2022-08-04T00:05:42.148Z,1.30
2022-08-04T00:06:01.511Z,1.60
2022-08-04T00:06:23.237Z,1.48
2022-08-04T00:07:10.500Z,1.45
2022-08-04T00:07:44.066Z,1.45
2022-08-04T00:08:15.606Z,1.50
2022-08-04T00:08:39.106Z,1.40
2022-08-04T00:08:58.273Z,1.50
2022-08-04T00:10:04.802Z,1.52
2022-08-04T00:10:18.020Z,1.50
2022-08-04T00:10:31.032Z,1.40
2022-08-04T00:10:48.141Z,1.33
2022-08-04T00:11:01.379Z,1.40
2022-08-04T00:11:21.655Z,1.50
2022-08-04T00:11:34.732Z,1.40
2022-08-04T00:11:49.843Z,1.40
2022-08-04T00:12:02.724Z,1.50
2022-08-04T00:12:16.681Z,1.65
2022-08-04T00:12:31.570Z,1.60
2022-08-04T00:12:48.165Z,1.60
2022-08-04T00:13:01.313Z,1.50
2022-08-04T00:13:14.422Z,1.60
2022-08-04T00:13:31.549Z,1.60
2022-08-04T00:14:02.546Z,1.50
2022-08-04T00:14:17.050Z,1.50
2022-08-04T00:14:31.137Z,1.42
2022-08-04T00:14:48.147Z,1.40
2022-08-04T00:15:02.545Z,1.42
2022-08-04T00:15:17.055Z,1.60
2022-08-04T00:15:29.961Z,1.70
2022-08-04T00:15:43.565Z,1.60
2022-08-04T00:16:02.192Z,1.30
2022-08-04T00:16:15.107Z,1.27
2022-08-04T00:16:32.757Z,1.33
2022-08-04T00:16:49.509Z,1.45
2022-08-04T00:17:06.842Z,1.50
2022-08-04T00:17:21.320Z,1.45
2022-08-04T00:17:39.906Z,1.40
2022-08-04T00:18:01.192Z,1.60
2022-08-04T00:18:16.048Z,1.45
2022-08-04T00:18:39.796Z,1.20
2022-08-04T00:18:58.415Z,1.45
2022-08-04T00:19:19.355Z,1.60
2022-08-04T00:20:05.344Z,1.40
2022-08-04T00:20:19.353Z,1.45
2022-08-04T00:20:40.867Z,1.42
2022-08-04T00:21:00.780Z,1.50
2022-08-04T00:21:14.736Z,1.55
2022-08-04T00:21:27.777Z,1.50
2022-08-04T00:21:43.387Z,1.45
2022-08-04T00:22:05.866Z,1.40
2022-08-04T00:22:21.166Z,1.50
2022-08-04T00:22:34.842Z,1.30
2022-08-04T00:22:48.325Z,1.35
2022-08-04T00:23:02.239Z,1.55
2022-08-04T00:23:15.236Z,1.50
2022-08-04T00:23:28.282Z,1.50
2022-08-04T00:24:10.559Z,1.62
2022-08-04T00:24:24.288Z,1.50
2022-08-04T00:24:37.643Z,1.50
2022-08-04T00:24:50.544Z,1.58
2022-08-04T00:25:05.187Z,1.40
2022-08-04T00:25:18.211Z,1.40
2022-08-04T00:25:31.195Z,1.48
2022-08-04T00:25:44.903Z,1.60
2022-08-04T00:26:06.402Z,1.60
2022-08-04T00:26:19.462Z,1.50
2022-08-04T00:26:33.251Z,1.60
2022-08-04T00:26:46.539Z,1.50
2022-08-04T00:26:59.757Z,1.60
2022-08-04T00:27:12.772Z,1.62
2022-08-04T00:27:26.854Z,1.70
2022-08-04T00:27:40.013Z,1.60
2022-08-04T00:27:53.011Z,1.60
2022-08-04T00:28:06.139Z,1.60
2022-08-04T00:28:19.890Z,1.62
2022-08-04T00:28:32.945Z,1.58
2022-08-04T00:28:46.321Z,1.70
2022-08-04T00:28:59.200Z,1.70
2022-08-04T00:29:12.230Z,1.62
2022-08-04T00:29:25.274Z,1.60
2022-08-04T00:29:38.815Z,1.60
2022-08-04T00:29:53.059Z,1.55
2022-08-04T00:30:07.298Z,1.42
2022-08-04T00:30:21.149Z,1.50
2022-08-04T00:30:34.196Z,1.60
2022-08-04T00:30:47.094Z,1.55
2022-08-04T00:31:00.017Z,1.50
2022-08-04T00:31:15.284Z,1.60
2022-08-04T00:31:33.326Z,1.60
2022-08-04T00:32:02.254Z,1.40
2022-08-04T00:32:15.177Z,1.50
2022-08-04T00:32:47.254Z,1.50
2022-08-04T00:33:00.213Z,1.50
2022-08-04T00:33:17.858Z,1.52
2022-08-04T00:33:30.738Z,1.73
2022-08-04T00:33:47.067Z,1.65
2022-08-04T00:34:00.266Z,1.50
2022-08-04T00:34:14.062Z,1.50
2022-08-04T00:34:28.216Z,1.50
2022-08-04T00:34:41.134Z,1.50
2022-08-04T00:34:57.769Z,1.50
2022-08-04T00:35:14.094Z,1.60
2022-08-04T00:35:27.720Z,1.65
2022-08-04T00:35:41.445Z,1.60
2022-08-04T00:35:54.489Z,1.58
2022-08-04T00:36:07.332Z,1.60
2022-08-04T00:36:20.256Z,1.60
2022-08-04T00:36:33.446Z,1.60
2022-08-04T00:36:46.632Z,1.60
2022-08-04T00:36:59.792Z,1.55
2022-08-04T00:37:12.727Z,1.50
2022-08-04T00:37:26.221Z,1.50
2022-08-04T00:37:39.643Z,1.52
2022-08-04T00:37:52.533Z,1.70
2022-08-04T00:38:05.564Z,1.70
2022-08-04T00:38:19.182Z,1.60
2022-08-04T00:38:32.186Z,1.62
2022-08-04T00:38:45.357Z,1.55
2022-08-04T00:38:58.284Z,1.33
2022-08-04T00:39:15.150Z,1.48
2022-08-04T00:39:28.137Z,1.70
2022-08-04T00:39:41.286Z,1.70
2022-08-04T00:39:54.757Z,1.65
2022-08-04T00:40:50.192Z,1.60
2022-08-04T00:41:31.168Z,1.50
2022-08-04T00:42:02.471Z,1.80
2022-08-04T00:42:18.223Z,1.70
2022-08-04T00:42:58.344Z,1.62
2022-08-04T00:43:40.109Z,1.60
2022-08-04T00:44:24.403Z,1.40
2022-08-04T00:44:59.188Z,1.60
2022-08-04T00:46:16.413Z,1.60
2022-08-04T00:46:49.909Z,1.77
2022-08-04T00:47:24.437Z,1.70
2022-08-04T00:47:45.026Z,1.60
2022-08-04T00:48:47.737Z,1.67
2022-08-04T00:49:24.746Z,1.70
2022-08-04T00:49:40.447Z,1.60
2022-08-04T00:50:10.964Z,1.70
2022-08-04T00:50:46.601Z,1.80
2022-08-04T00:51:25.010Z,1.60
2022-08-04T00:51:40.899Z,1.80
2022-08-04T00:52:31.304Z,1.70
2022-08-04T00:52:47.211Z,1.70
2022-08-04T00:53:07.365Z,1.60
2022-08-04T00:53:36.575Z,1.67
2022-08-04T00:54:02.061Z,1.60
2022-08-04T00:54:28.794Z,1.70
2022-08-04T00:55:59.755Z,1.80
2022-08-04T00:56:32.688Z,1.80
2022-08-04T00:56:54.540Z,1.80
2022-08-04T00:57:35.581Z,1.70
2022-08-04T00:57:48.447Z,1.75
2022-08-04T00:58:20.276Z,1.70
2022-08-04T00:58:51.275Z,1.65
2022-08-04T00:59:23.374Z,1.70
2022-08-04T00:59:51.919Z,1.60
2022-08-04T01:00:10.373Z,1.80
2022-08-04T01:00:23.478Z,1.83
2022-08-04T01:00:44.843Z,1.70
2022-08-04T01:01:09.144Z,1.70
2022-08-04T01:01:59.725Z,1.80
2022-08-04T01:02:29.125Z,1.60
2022-08-04T01:02:58.271Z,1.52
2022-08-04T01:03:32.689Z,1.65
2022-08-04T01:04:15.169Z,1.60
2022-08-04T01:04:53.707Z,1.60
2022-08-04T01:05:26.733Z,1.70
2022-08-04T01:06:16.441Z,1.60
2022-08-04T01:06:29.242Z,1.65
2022-08-04T01:07:05.818Z,1.70
2022-08-04T01:07:44.578Z,1.67
2022-08-04T01:08:15.862Z,1.60
2022-08-04T01:08:55.031Z,1.73
2022-08-04T01:09:38.053Z,1.70
2022-08-04T01:10:08.049Z,1.65
2022-08-04T01:10:23.537Z,1.60
2022-08-04T01:10:48.394Z,1.70
2022-08-04T01:11:29.132Z,1.70
2022-08-04T01:11:57.080Z,1.70
2022-08-04T01:12:18.108Z,1.77
2022-08-04T01:12:52.946Z,1.67
2022-08-04T01:13:15.129Z,1.60
2022-08-04T01:13:34.046Z,1.60
2022-08-04T01:14:04.724Z,1.70
2022-08-04T01:14:36.359Z,1.80
2022-08-04T01:14:59.718Z,1.60
2022-08-04T01:15:22.638Z,1.58
2022-08-04T01:16:00.577Z,1.60
2022-08-04T01:16:16.393Z,1.80
2022-08-04T01:16:29.477Z,1.77
2022-08-04T01:16:49.410Z,1.77
2022-08-04T01:17:26.056Z,1.87
2022-08-04T01:17:57.348Z,1.67
2022-08-04T01:18:10.611Z,1.83
2022-08-04T01:18:34.233Z,1.80
2022-08-04T01:19:02.167Z,1.70
2022-08-04T01:19:28.607Z,1.70
2022-08-04T01:20:08.622Z,1.60
2022-08-04T01:20:25.044Z,1.73
2022-08-04T01:20:52.895Z,1.70
2022-08-04T01:21:11.978Z,1.80
2022-08-04T01:21:31.052Z,1.70
2022-08-04T01:21:43.869Z,1.90
2022-08-04T01:22:11.320Z,1.80
2022-08-04T01:22:32.515Z,1.90
2022-08-04T01:23:06.040Z,1.70
2022-08-04T01:23:24.791Z,1.60
2022-08-04T01:24:05.300Z,1.80
2022-08-04T01:24:37.005Z,1.70
2022-08-04T01:25:24.131Z,1.83
2022-08-04T01:26:42.191Z,1.70
2022-08-04T01:27:18.992Z,1.90
2022-08-04T01:27:53.633Z,1.80
2022-08-04T01:28:30.087Z,1.77
2022-08-04T01:29:02.681Z,1.70
2022-08-04T01:29:16.239Z,1.90
2022-08-04T01:29:47.035Z,1.90
2022-08-04T01:30:01.751Z,2.00
2022-08-04T01:30:14.868Z,1.95
2022-08-04T01:30:28.640Z,1.90
2022-08-04T01:30:43.224Z,1.75
2022-08-04T01:31:07.167Z,1.73
2022-08-04T01:31:34.748Z,1.80
2022-08-04T01:32:14.352Z,1.62
2022-08-04T01:32:38.238Z,1.90
2022-08-04T01:32:53.737Z,1.73
2022-08-04T01:33:11.663Z,1.85
2022-08-04T01:33:24.543Z,1.80
2022-08-04T01:33:58.489Z,1.90
2022-08-04T01:34:12.902Z,1.80
2022-08-04T01:34:28.571Z,1.90
2022-08-04T01:34:50.170Z,1.90
2022-08-04T01:35:08.947Z,1.70
2022-08-04T01:35:55.845Z,1.90
2022-08-04T01:36:08.990Z,1.90
2022-08-04T01:36:22.236Z,1.90
2022-08-04T01:36:36.277Z,2.00
2022-08-04T01:37:09.273Z,2.08
2022-08-04T01:37:50.955Z,1.90
2022-08-04T01:38:18.386Z,1.83
2022-08-04T01:38:40.904Z,1.80
2022-08-04T01:38:54.371Z,1.73
2022-08-04T01:40:13.658Z,1.80
2022-08-04T01:40:27.337Z,1.80
2022-08-04T01:40:40.424Z,1.90
2022-08-04T01:40:57.386Z,2.00
2022-08-04T01:41:14.241Z,2.00
2022-08-04T01:41:32.535Z,1.80
2022-08-04T01:41:57.943Z,1.77
2022-08-04T01:42:12.632Z,1.90
2022-08-04T01:42:36.576Z,1.90
2022-08-04T01:42:50.268Z,1.98
2022-08-04T01:43:03.309Z,2.00
2022-08-04T01:43:16.184Z,1.95
2022-08-04T01:43:30.690Z,1.90
2022-08-04T01:43:45.223Z,1.80
2022-08-04T01:43:58.264Z,1.80
2022-08-04T01:44:11.377Z,1.90
2022-08-04T01:44:25.009Z,1.90
2022-08-04T01:44:39.794Z,1.80
2022-08-04T01:44:52.895Z,1.80
2022-08-04T01:45:07.677Z,1.83
2022-08-04T01:45:21.218Z,1.90
2022-08-04T01:45:34.236Z,1.87
2022-08-04T01:45:51.500Z,1.85
2022-08-04T01:46:05.224Z,2.03
2022-08-04T01:46:20.095Z,1.92
2022-08-04T01:46:33.450Z,1.90
2022-08-04T01:46:46.685Z,1.90
2022-08-04T01:47:01.106Z,1.70
2022-08-04T01:47:14.151Z,1.80
2022-08-04T01:47:29.840Z,2.00
2022-08-04T01:47:48.928Z,1.98
2022-08-04T01:48:01.792Z,1.83
2022-08-04T01:48:14.645Z,2.00
2022-08-04T01:48:27.847Z,2.00
2022-08-04T01:48:41.132Z,1.80
2022-08-04T01:48:54.359Z,1.87
2022-08-04T01:49:07.625Z,1.80
2022-08-04T01:49:22.336Z,1.90
2022-08-04T01:49:40.778Z,1.90
2022-08-04T01:49:53.826Z,1.95
2022-08-04T01:50:12.307Z,1.98
2022-08-04T01:50:28.125Z,1.95
2022-08-04T01:50:41.519Z,1.90
2022-08-04T01:50:57.130Z,1.90
2022-08-04T01:51:10.438Z,2.00
2022-08-04T01:51:23.321Z,2.00
2022-08-04T01:51:38.007Z,2.00
2022-08-04T01:51:52.460Z,2.10
2022-08-04T01:52:06.792Z,1.98
2022-08-04T01:52:19.901Z,1.80
2022-08-04T01:52:37.742Z,2.00
2022-08-04T01:52:53.687Z,2.00
2022-08-04T01:53:06.704Z,1.90
2022-08-04T01:53:21.258Z,1.70
2022-08-04T01:53:38.649Z,1.60
2022-08-04T01:53:51.946Z,1.90
2022-08-04T01:54:05.082Z,2.05
2022-08-04T01:54:18.601Z,1.90
2022-08-04T01:54:31.941Z,1.80
2022-08-04T01:54:45.066Z,1.85
2022-08-04T01:54:58.108Z,2.00
2022-08-04T01:55:12.570Z,2.03
2022-08-04T01:55:25.562Z,1.83
2022-08-04T01:55:58.364Z,1.90
2022-08-04T01:56:11.890Z,1.85
2022-08-04T01:56:24.782Z,1.95
2022-08-04T01:56:37.641Z,2.00
2022-08-04T01:56:50.787Z,2.00
2022-08-04T01:57:38.326Z,2.00
2022-08-04T01:57:45.154Z,1.95
2022-08-04T01:58:00.142Z,1.80
2022-08-04T01:58:13.053Z,1.80
2022-08-04T01:58:26.293Z,1.90
2022-08-04T01:58:39.867Z,1.90
2022-08-04T01:58:53.134Z,1.83
2022-08-04T01:59:06.050Z,2.00
2022-08-04T01:59:19.913Z,1.92
2022-08-04T01:59:33.719Z,1.87
2022-08-04T01:59:46.880Z,2.00
2022-08-04T01:59:59.915Z,2.00
2022-08-04T02:00:15.570Z,1.70
2022-08-04T02:00:29.327Z,1.73
2022-08-04T02:00:43.180Z,1.90
2022-08-04T02:01:08.309Z,1.83
2022-08-04T02:01:23.866Z,1.90
2022-08-04T02:01:37.446Z,1.90
2022-08-04T02:01:50.672Z,2.08
2022-08-04T02:02:05.489Z,2.10
2022-08-04T02:02:18.901Z,1.90
2022-08-04T02:02:34.423Z,2.00
2022-08-04T02:02:47.966Z,2.10
2022-08-04T02:03:01.438Z,1.95
2022-08-04T02:03:14.447Z,1.85
2022-08-04T02:04:19.752Z,1.95
2022-08-04T02:04:20.035Z,1.80
2022-08-04T02:04:33.399Z,2.00
2022-08-04T02:04:46.379Z,1.90
2022-08-04T02:04:59.465Z,1.83
2022-08-04T02:05:15.335Z,1.90
2022-08-04T02:06:02.327Z,2.00
2022-08-04T02:06:31.826Z,1.92
2022-08-04T02:07:02.653Z,1.92
2022-08-04T02:07:27.085Z,1.92
2022-08-04T02:08:04.661Z,2.03
2022-08-04T02:09:01.105Z,1.90
2022-08-04T02:09:22.969Z,1.90
2022-08-04T02:09:54.273Z,1.92
2022-08-04T02:10:22.860Z,2.08
2022-08-04T02:10:42.382Z,2.10
2022-08-04T02:11:05.222Z,2.05
2022-08-04T02:11:21.864Z,1.98
2022-08-04T02:11:34.731Z,1.98
2022-08-04T02:11:53.496Z,1.90
2022-08-04T02:12:18.290Z,1.80
2022-08-04T02:12:34.392Z,2.00
2022-08-04T02:13:09.002Z,2.10
2022-08-04T02:13:31.464Z,1.87
2022-08-04T02:13:50.110Z,1.70
2022-08-04T02:14:36.606Z,1.90
2022-08-04T02:15:07.654Z,2.00
2022-08-04T02:15:59.039Z,1.92
2022-08-04T02:16:30.715Z,2.00
2022-08-04T02:16:52.369Z,2.10
2022-08-04T02:17:14.498Z,2.00
2022-08-04T02:17:48.586Z,2.03
2022-08-04T02:18:15.717Z,1.80
2022-08-04T02:18:45.364Z,2.00
2022-08-04T02:19:24.470Z,2.00
2022-08-04T02:19:42.991Z,2.10
2022-08-04T02:20:00.356Z,2.03
2022-08-04T02:20:23.723Z,2.00
2022-08-04T02:20:39.418Z,1.80
2022-08-04T02:21:01.825Z,2.00
2022-08-04T02:21:15.284Z,2.00
2022-08-04T02:21:28.552Z,1.90
2022-08-04T02:21:58.491Z,1.87
2022-08-04T02:22:17.798Z,1.90
2022-08-04T02:22:30.923Z,1.92
2022-08-04T02:23:07.907Z,2.00
2022-08-04T02:23:28.618Z,2.00
2022-08-04T02:23:41.800Z,2.03
2022-08-04T02:23:58.245Z,2.12
2022-08-04T02:24:14.777Z,2.10
2022-08-04T02:24:28.305Z,2.00
2022-08-04T02:24:46.070Z,1.95
2022-08-04T02:25:09.277Z,2.00
2022-08-04T02:25:24.565Z,2.00
2022-08-04T02:25:40.295Z,1.90
2022-08-04T02:25:57.055Z,2.00
2022-08-04T02:26:19.501Z,2.00
2022-08-04T02:26:36.789Z,2.15
2022-08-04T02:26:50.287Z,2.20
2022-08-04T02:27:03.547Z,2.20
2022-08-04T02:27:17.198Z,2.10
2022-08-04T02:28:00.462Z,2.10
2022-08-04T02:28:05.646Z,2.10
2022-08-04T02:28:35.702Z,2.10
2022-08-04T02:28:49.304Z,2.03
2022-08-04T02:29:35.505Z,1.95
2022-08-04T02:30:00.386Z,2.00
2022-08-04T02:30:13.615Z,2.00
2022-08-04T02:30:37.430Z,2.03
2022-08-04T02:31:06.978Z,2.00
2022-08-04T02:31:35.770Z,2.00
2022-08-04T02:32:01.903Z,2.10
2022-08-04T02:32:48.589Z,1.90
2022-08-04T02:33:03.343Z,2.05
2022-08-04T02:33:19.336Z,2.00
2022-08-04T02:33:52.846Z,2.03
2022-08-04T02:34:21.319Z,2.10
2022-08-04T02:35:01.655Z,1.95
2022-08-04T02:35:27.775Z,2.10
2022-08-04T02:35:40.688Z,2.00
2022-08-04T02:35:57.429Z,2.10
2022-08-04T02:36:14.176Z,2.03
2022-08-04T02:36:31.796Z,1.90
2022-08-04T02:36:44.870Z,1.95
2022-08-04T02:36:58.224Z,2.10
2022-08-04T02:37:11.908Z,2.12
2022-08-04T02:37:25.088Z,2.10
2022-08-04T02:37:38.158Z,2.00
2022-08-04T02:37:59.100Z,1.90
2022-08-04T02:38:13.342Z,2.15
2022-08-04T02:38:48.507Z,2.07
2022-08-04T02:39:03.046Z,1.98
2022-08-04T02:39:18.208Z,2.00
2022-08-04T02:39:48.398Z,2.22
2022-08-04T02:40:04.303Z,2.20
2022-08-04T02:40:20.626Z,2.03
2022-08-04T02:40:33.539Z,1.90
2022-08-04T02:40:46.540Z,2.08
2022-08-04T02:41:00.499Z,2.00
2022-08-04T02:41:13.824Z,2.00
2022-08-04T02:41:27.673Z,2.00
2022-08-04T02:41:41.033Z,1.95
2022-08-04T02:41:53.964Z,2.03
2022-08-04T02:42:07.023Z,2.00
2022-08-04T02:42:23.319Z,2.00
2022-08-04T02:42:36.295Z,2.10
2022-08-04T02:42:49.462Z,2.25
2022-08-04T02:43:04.249Z,2.20
2022-08-04T02:43:19.867Z,2.05
2022-08-04T02:43:56.381Z,2.05
2022-08-04T02:44:10.418Z,2.03
2022-08-04T02:44:23.635Z,2.08
2022-08-04T02:44:36.514Z,2.10
2022-08-04T02:44:51.282Z,2.00
2022-08-04T02:45:04.464Z,2.00
2022-08-04T02:45:19.035Z,2.15
2022-08-04T02:45:32.178Z,2.20
2022-08-04T02:45:45.309Z,2.05
2022-08-04T02:45:58.377Z,1.85
2022-08-04T02:46:17.678Z,1.83
2022-08-04T02:46:32.494Z,2.08
2022-08-04T02:46:45.537Z,2.15
2022-08-04T02:47:00.626Z,2.17
2022-08-04T02:47:13.540Z,2.08
2022-08-04T02:48:29.023Z,1.90
2022-08-04T02:48:30.557Z,2.00
2022-08-04T02:48:33.864Z,2.08
2022-08-04T02:48:47.854Z,1.98
2022-08-04T02:49:07.126Z,1.90
2022-08-04T02:49:21.207Z,2.03
2022-08-04T02:49:40.590Z,2.10
2022-08-04T02:49:54.569Z,1.92
2022-08-04T02:50:10.485Z,2.00
2022-08-04T02:50:28.310Z,1.95
2022-08-04T02:50:42.285Z,1.85
2022-08-04T02:50:55.183Z,2.00
2022-08-04T02:51:08.099Z,1.90
2022-08-04T02:51:31.792Z,1.87
2022-08-04T02:51:50.037Z,1.95
2022-08-04T02:52:03.414Z,1.75
2022-08-04T02:52:16.552Z,1.75
2022-08-04T02:52:29.963Z,1.90
2022-08-04T02:52:42.882Z,1.90
2022-08-04T02:52:56.875Z,1.90
2022-08-04T02:53:10.609Z,1.90
2022-08-04T02:53:23.532Z,1.90
2022-08-04T02:53:36.755Z,1.90
2022-08-04T02:53:50.566Z,1.98
2022-08-04T02:54:05.523Z,2.08
2022-08-04T02:54:31.755Z,2.10
2022-08-04T02:54:48.279Z,2.20
2022-08-04T02:55:01.824Z,2.10
2022-08-04T02:55:15.651Z,1.98
2022-08-04T02:55:29.424Z,1.90
2022-08-04T02:55:50.808Z,1.87
2022-08-04T02:56:05.158Z,2.03
2022-08-04T02:56:19.458Z,2.05
2022-08-04T02:56:33.363Z,2.00
2022-08-04T02:56:46.373Z,2.00
2022-08-04T02:57:04.552Z,2.00
2022-08-04T02:57:23.794Z,2.10
2022-08-04T02:57:36.822Z,2.25
2022-08-04T02:57:53.715Z,2.15
2022-08-04T02:58:06.738Z,2.00
2022-08-04T02:58:20.420Z,1.83
2022-08-04T02:58:35.371Z,1.77
2022-08-04T02:59:00.704Z,1.90
2022-08-04T02:59:14.021Z,2.03
2022-08-04T02:59:28.053Z,1.95
2022-08-04T03:00:15.403Z,1.95
2022-08-04T03:00:28.281Z,2.00
2022-08-04T03:00:41.258Z,2.10
2022-08-04T03:00:54.576Z,2.10
2022-08-04T03:01:07.569Z,2.10
2022-08-04T03:01:21.896Z,2.00
2022-08-04T03:01:35.332Z,2.10
2022-08-04T03:01:57.659Z,2.10
2022-08-04T03:02:11.222Z,1.98
2022-08-04T03:02:29.507Z,2.00
2022-08-04T03:02:48.080Z,2.10
2022-08-04T03:03:31.485Z,2.10
2022-08-04T03:03:59.577Z,2.00
2022-08-04T03:04:51.325Z,1.90
2022-08-04T03:05:10.219Z,2.00
2022-08-04T03:05:26.707Z,1.90
2022-08-04T03:06:01.614Z,2.00
2022-08-04T03:06:45.273Z,2.10
2022-08-04T03:07:19.441Z,1.90
2022-08-04T03:07:47.480Z,2.00
2022-08-04T03:08:24.814Z,2.03
2022-08-04T03:09:05.271Z,2.15
2022-08-04T03:09:55.491Z,1.95
2022-08-04T03:10:26.717Z,2.10
2022-08-04T03:10:59.413Z,2.00
2022-08-04T03:11:36.852Z,2.00
2022-08-04T03:12:20.210Z,2.00
2022-08-04T03:12:51.818Z,2.03
2022-08-04T03:13:39.780Z,1.98
2022-08-04T03:14:08.117Z,2.10
2022-08-04T03:14:30.567Z,2.15
2022-08-04T03:15:14.268Z,1.90
2022-08-04T03:15:41.613Z,2.28
2022-08-04T03:16:33.501Z,2.15
2022-08-04T03:17:06.198Z,2.10
2022-08-04T03:17:53.072Z,2.05
2022-08-04T03:18:21.568Z,2.08
2022-08-04T03:19:04.266Z,2.10
2022-08-04T03:19:39.060Z,2.10
2022-08-04T03:20:28.622Z,2.03
2022-08-04T03:21:04.688Z,2.10
2022-08-04T03:21:54.905Z,2.00
2022-08-04T03:22:45.066Z,2.00
2022-08-04T03:23:29.994Z,2.00
2022-08-04T03:24:00.127Z,2.15
2022-08-04T03:24:19.855Z,2.00
2022-08-04T03:24:39.038Z,2.00
2022-08-04T03:25:09.330Z,2.05
2022-08-04T03:25:31.240Z,2.00
2022-08-04T03:26:02.250Z,1.90
2022-08-04T03:26:30.121Z,2.10
2022-08-04T03:27:13.703Z,2.05
2022-08-04T03:27:51.377Z,2.22
2022-08-04T03:28:11.353Z,1.90
2022-08-04T03:28:51.884Z,2.05
2022-08-04T03:29:10.373Z,2.10
2022-08-04T03:29:47.083Z,2.10
2022-08-04T03:30:19.173Z,2.12
2022-08-04T03:30:59.310Z,1.98
2022-08-04T03:31:31.316Z,2.20
2022-08-04T03:32:08.763Z,2.12
2022-08-04T03:32:30.223Z,2.20
2022-08-04T03:33:07.377Z,2.12
2022-08-04T05:26:44.756Z,2.10
2022-08-04T05:27:02.193Z,2.10
2022-08-04T05:27:20.966Z,2.20
2022-08-04T05:31:00.663Z,2.20
2022-08-04T05:38:45.434Z,2.00
2022-08-04T05:39:00.052Z,2.00
2022-08-04T05:41:44.899Z,2.05
2022-08-04T05:43:50.461Z,2.15
2022-08-04T05:47:24.946Z,2.00
2022-08-04T05:50:02.086Z,2.00
2022-08-04T05:51:36.601Z,2.17
2022-08-04T05:54:04.191Z,2.00
2022-08-04T05:54:43.904Z,2.28
2022-08-04T05:55:57.180Z,2.10
2022-08-04T05:55:59.601Z,2.03
2022-08-04T05:56:14.139Z,1.90
2022-08-04T05:56:27.172Z,1.98
2022-08-04T05:56:42.670Z,2.20
2022-08-04T05:56:56.208Z,2.08
2022-08-04T05:57:09.240Z,1.90
2022-08-04T05:57:22.323Z,1.90
2022-08-04T05:57:35.583Z,2.00
2022-08-04T05:57:51.781Z,2.10
2022-08-04T05:58:06.995Z,2.00
2022-08-04T05:58:20.051Z,1.90
2022-08-04T05:58:32.978Z,1.80
2022-08-04T05:58:46.534Z,1.98
2022-08-04T05:58:59.886Z,2.00
2022-08-04T05:59:17.381Z,1.90
2022-08-04T05:59:31.229Z,1.90
2022-08-04T05:59:46.673Z,2.05
2022-08-04T06:00:19.763Z,1.98
2022-08-04T06:00:41.489Z,2.20
2022-08-04T06:00:55.094Z,2.00
2022-08-04T06:01:09.073Z,1.90
2022-08-04T06:01:22.034Z,1.90
2022-08-04T06:01:56.329Z,2.08
2022-08-04T06:02:08.264Z,2.03
2022-08-04T06:02:21.234Z,1.90
2022-08-04T06:02:34.442Z,1.90
2022-08-04T06:02:47.950Z,1.85
2022-08-04T06:03:00.789Z,1.98
2022-08-04T06:03:13.744Z,1.80
2022-08-04T06:03:28.299Z,1.87
2022-08-04T06:03:41.260Z,2.00
2022-08-04T06:03:54.163Z,1.90
2022-08-04T06:04:11.145Z,2.00
2022-08-04T06:04:31.497Z,2.03
2022-08-04T06:04:47.039Z,1.92
2022-08-04T06:05:00.082Z,2.00
2022-08-04T06:05:14.861Z,2.00
2022-08-04T06:05:27.715Z,2.03
2022-08-04T06:05:41.767Z,2.10
2022-08-04T06:05:54.813Z,1.87
2022-08-04T06:06:07.784Z,1.77
2022-08-04T06:06:20.791Z,2.05
2022-08-04T06:06:33.677Z,2.10
2022-08-04T06:06:49.129Z,2.00
2022-08-04T06:07:02.215Z,1.90
2022-08-04T06:07:15.089Z,1.90
2022-08-04T06:07:28.037Z,1.90
2022-08-04T06:08:07.747Z,1.92
2022-08-04T06:08:14.740Z,2.00
2022-08-04T06:08:27.668Z,2.00
2022-08-04T06:08:40.707Z,2.00
2022-08-04T06:08:53.654Z,2.10
2022-08-04T06:09:06.608Z,2.10
2022-08-04T06:09:19.742Z,2.00
2022-08-04T06:09:32.631Z,2.00
2022-08-04T06:09:45.649Z,1.85
2022-08-04T06:09:58.510Z,1.83
2022-08-04T06:10:16.973Z,2.00
2022-08-04T06:10:30.101Z,2.00
2022-08-04T06:10:43.079Z,2.10
2022-08-04T06:10:56.167Z,2.10
2022-08-04T06:11:09.596Z,1.85
2022-08-04T06:11:23.031Z,1.80
2022-08-04T06:11:59.141Z,1.90
2022-08-04T06:12:15.035Z,1.95
2022-08-04T06:12:40.319Z,2.00
2022-08-04T06:12:55.795Z,1.95
2022-08-04T06:13:48.701Z,1.92
2022-08-04T06:14:07.930Z,1.92
2022-08-04T06:14:20.880Z,1.92
2022-08-04T06:14:40.004Z,1.90
2022-08-04T06:14:54.751Z,1.80
2022-08-04T06:15:14.002Z,1.90
2022-08-04T06:15:29.687Z,1.90
2022-08-04T06:15:46.382Z,1.90
2022-08-04T06:15:59.459Z,1.80
2022-08-04T06:16:28.824Z,1.90
2022-08-04T06:16:47.033Z,1.90
2022-08-04T06:17:05.861Z,1.92
2022-08-04T06:18:35.475Z,1.80
2022-08-04T06:19:56.298Z,1.87
2022-08-04T06:19:58.509Z,2.10
2022-08-04T06:20:00.685Z,1.90
2022-08-04T06:20:02.537Z,1.77
2022-08-04T06:20:21.897Z,1.75
2022-08-04T06:20:37.290Z,2.00
2022-08-04T06:20:51.529Z,1.95
2022-08-04T06:21:16.162Z,1.92
2022-08-04T06:21:29.424Z,2.00
2022-08-04T06:21:44.541Z,1.90
2022-08-04T06:21:57.734Z,1.85
2022-08-04T06:22:10.897Z,1.90
2022-08-04T06:22:23.944Z,2.03
2022-08-04T06:22:40.007Z,1.90
2022-08-04T06:22:55.348Z,2.00
2022-08-04T06:23:11.729Z,2.00
2022-08-04T06:23:24.657Z,1.85
2022-08-04T06:23:37.781Z,1.90
2022-08-04T06:24:10.916Z,2.03
2022-08-04T06:24:24.889Z,2.10
2022-08-04T06:24:45.718Z,2.30
2022-08-04T06:24:58.667Z,2.17
2022-08-04T06:25:12.296Z,1.83
2022-08-04T06:25:28.158Z,1.90
2022-08-04T06:25:48.848Z,2.00
2022-08-04T06:26:01.822Z,1.83
2022-08-04T06:26:19.668Z,1.90
2022-08-04T06:26:34.900Z,2.00
2022-08-04T06:26:50.781Z,1.92
2022-08-04T06:27:04.341Z,1.80
2022-08-04T06:27:17.180Z,1.90
2022-08-04T06:27:30.219Z,2.00
2022-08-04T06:27:45.233Z,1.90
2022-08-04T06:27:58.148Z,1.80
2022-08-04T06:28:11.149Z,2.00
2022-08-04T06:28:24.473Z,1.98
2022-08-04T06:28:57.289Z,2.00
2022-08-04T06:29:17.416Z,1.80
2022-08-04T06:29:38.511Z,2.00
2022-08-04T06:29:52.002Z,1.90
2022-08-04T06:30:10.170Z,1.87
2022-08-04T06:30:26.981Z,1.90
2022-08-04T06:32:27.000Z,1.90
2022-08-04T06:32:31.491Z,1.92
2022-08-04T06:32:41.469Z,1.70
2022-08-04T06:33:03.472Z,1.80
2022-08-04T06:33:27.869Z,1.80
2022-08-04T06:33:54.859Z,1.73
2022-08-04T06:34:08.587Z,1.90
2022-08-04T06:34:38.460Z,1.62
2022-08-04T06:34:56.780Z,1.80
2022-08-04T06:35:09.882Z,1.73
2022-08-04T06:35:23.847Z,1.65
2022-08-04T06:35:36.864Z,1.60
2022-08-04T06:35:50.170Z,1.73
2022-08-04T06:36:05.478Z,1.73
2022-08-04T06:36:18.490Z,1.80
2022-08-04T06:36:31.675Z,1.80
2022-08-04T06:36:44.607Z,1.70
2022-08-04T06:36:57.764Z,1.73
2022-08-04T06:37:10.860Z,1.83
2022-08-04T06:37:42.058Z,1.80
2022-08-04T06:38:00.645Z,1.85
2022-08-04T06:38:14.142Z,1.80
2022-08-04T06:38:29.234Z,1.62
2022-08-04T06:38:42.471Z,1.77
2022-08-04T06:38:58.384Z,1.90
2022-08-04T06:39:12.077Z,1.80
2022-08-04T06:39:25.395Z,1.70
2022-08-04T06:39:38.539Z,1.83
2022-08-04T06:39:51.855Z,1.90
2022-08-04T06:40:31.930Z,1.80
2022-08-04T06:40:38.004Z,1.62
2022-08-04T06:40:51.272Z,1.75
2022-08-04T06:41:09.396Z,1.80
2022-08-04T06:41:22.991Z,1.80
2022-08-04T06:41:35.963Z,1.83
2022-08-04T06:42:21.416Z,1.70
2022-08-04T06:42:36.022Z,1.67
2022-08-04T06:42:52.301Z,1.70
2022-08-04T06:43:08.260Z,1.73
2022-08-04T06:43:21.396Z,1.60
2022-08-04T06:43:42.806Z,1.60
2022-08-04T06:44:00.146Z,1.70
2022-08-04T06:44:14.025Z,1.73
2022-08-04T06:44:26.896Z,1.80
2022-08-04T06:44:40.613Z,1.80
2022-08-04T06:44:58.500Z,1.73
2022-08-04T06:45:12.082Z,1.75
2022-08-04T06:45:25.649Z,1.90
2022-08-04T06:45:39.996Z,1.90
2022-08-04T06:45:52.937Z,1.75
2022-08-04T06:46:06.021Z,1.75
2022-08-04T06:46:20.072Z,1.70
2022-08-04T06:46:35.227Z,1.73
2022-08-04T06:47:08.252Z,1.60
2022-08-04T06:47:26.980Z,1.80
2022-08-04T06:47:41.099Z,2.00
2022-08-04T06:47:53.994Z,1.80
2022-08-04T06:48:07.370Z,1.70
2022-08-04T06:48:20.480Z,1.67
2022-08-04T06:48:35.393Z,1.58
2022-08-04T06:48:48.342Z,1.50
2022-08-04T06:49:01.482Z,1.50
2022-08-04T06:49:14.762Z,1.65
2022-08-04T06:49:29.577Z,1.75
2022-08-04T06:51:24.571Z,1.73
2022-08-04T06:51:25.815Z,1.60
2022-08-04T06:51:32.926Z,1.90
2022-08-04T06:51:43.708Z,1.90
2022-08-04T06:52:03.117Z,1.87
2022-08-04T06:52:17.733Z,1.73
2022-08-04T06:52:30.895Z,1.60
2022-08-04T06:52:46.332Z,1.62
2022-08-04T06:53:00.143Z,1.70
2022-08-04T06:53:13.367Z,1.95
2022-08-04T06:53:26.700Z,1.90
2022-08-04T06:53:39.914Z,1.75
2022-08-04T06:53:52.985Z,1.70
2022-08-04T06:54:05.934Z,1.70
2022-08-04T06:54:22.720Z,1.80
2022-08-04T06:54:35.631Z,1.77